sensor_id;sensor_type;location;lat;lon;timestamp;P1;durP1;ratioP1;P2;durP2;ratioP2
6840;SDS011;3458;53.678;14.080;2023-10-09T00:01:27;4.10;;;1.73;;
6840;SDS011;3458;53.678;14.080;2023-10-09T00:03:53;5.90;;;2.10;;
6840;SDS011;3458;53.678;14.080;2023-10-09T00:06:20;4.47;;;2.40;;
6840;SDS011;3458;53.678;14.080;2023-10-09T00:08:55;2.27;;;1.60;;
6840;SDS011;3458;53.678;14.080;2023-10-09T00:11:23;2.67;;;1.80;;
6840;SDS011;3458;53.678;14.080;2023-10-09T00:13:54;4.00;;;1.73;;
6840;SDS011;3458;53.678;14.080;2023-10-09T00:16:23;2.50;;;2.00;;
6840;SDS011;3458;53.678;14.080;2023-10-09T00:19:00;2.77;;;2.00;;
6840;SDS011;3458;53.678;14.080;2023-10-09T00:21:42;3.70;;;1.93;;
6840;SDS011;3458;53.678;14.080;2023-10-09T00:24:09;7.60;;;3.47;;
6840;SDS011;3458;53.678;14.080;2023-10-09T00:27:03;3.17;;;1.93;;
6840;SDS011;3458;53.678;14.080;2023-10-09T00:29:55;4.00;;;2.13;;
6840;SDS011;3458;53.678;14.080;2023-10-09T00:32:24;2.77;;;1.80;;
6840;SDS011;3458;53.678;14.080;2023-10-09T00:34:52;1.53;;;1.43;;
6840;SDS011;3458;53.678;14.080;2023-10-09T00:37:18;3.43;;;2.13;;
6840;SDS011;3458;53.678;14.080;2023-10-09T00:39:48;3.50;;;1.87;;
6840;SDS011;3458;53.678;14.080;2023-10-09T00:42:20;3.03;;;1.80;;
6840;SDS011;3458;53.678;14.080;2023-10-09T00:44:54;2.70;;;1.90;;
6840;SDS011;3458;53.678;14.080;2023-10-09T00:47:21;7.07;;;1.80;;
6840;SDS011;3458;53.678;14.080;2023-10-09T00:52:30;1.73;;;1.60;;
6840;SDS011;3458;53.678;14.080;2023-10-09T00:55:00;6.33;;;1.87;;
6840;SDS011;3458;53.678;14.080;2023-10-09T00:57:33;2.10;;;1.70;;
6840;SDS011;3458;53.678;14.080;2023-10-09T01:00:02;2.10;;;1.57;;
6840;SDS011;3458;53.678;14.080;2023-10-09T01:02:36;2.60;;;1.57;;
6840;SDS011;3458;53.678;14.080;2023-10-09T01:05:03;3.77;;;1.57;;
6840;SDS011;3458;53.678;14.080;2023-10-09T01:07:45;2.27;;;1.73;;
6840;SDS011;3458;53.678;14.080;2023-10-09T01:10:12;1.67;;;1.57;;
6840;SDS011;3458;53.678;14.080;2023-10-09T01:12:41;2.33;;;2.13;;
6840;SDS011;3458;53.678;14.080;2023-10-09T01:15:10;1.87;;;1.77;;
6840;SDS011;3458;53.678;14.080;2023-10-09T01:17:55;2.20;;;1.87;;
6840;SDS011;3458;53.678;14.080;2023-10-09T01:20:23;3.77;;;1.87;;
6840;SDS011;3458;53.678;14.080;2023-10-09T01:23:01;1.83;;;1.40;;
6840;SDS011;3458;53.678;14.080;2023-10-09T01:25:27;2.30;;;1.67;;
6840;SDS011;3458;53.678;14.080;2023-10-09T01:28:06;2.87;;;1.90;;
6840;SDS011;3458;53.678;14.080;2023-10-09T01:30:32;3.00;;;2.10;;
6840;SDS011;3458;53.678;14.080;2023-10-09T01:32:58;3.70;;;2.07;;
6840;SDS011;3458;53.678;14.080;2023-10-09T01:35:36;7.10;;;1.80;;
6840;SDS011;3458;53.678;14.080;2023-10-09T01:38:11;4.93;;;2.00;;
6840;SDS011;3458;53.678;14.080;2023-10-09T01:40:39;3.20;;;1.90;;
6840;SDS011;3458;53.678;14.080;2023-10-09T01:43:05;3.73;;;2.20;;
6840;SDS011;3458;53.678;14.080;2023-10-09T01:45:34;5.90;;;2.40;;
6840;SDS011;3458;53.678;14.080;2023-10-09T01:48:07;3.63;;;2.17;;
6840;SDS011;3458;53.678;14.080;2023-10-09T01:50:33;3.50;;;2.00;;
6840;SDS011;3458;53.678;14.080;2023-10-09T01:53:01;1.70;;;1.60;;
6840;SDS011;3458;53.678;14.080;2023-10-09T01:55:27;5.20;;;1.83;;
6840;SDS011;3458;53.678;14.080;2023-10-09T01:58:01;4.00;;;2.10;;
6840;SDS011;3458;53.678;14.080;2023-10-09T02:00:49;2.60;;;1.37;;
6840;SDS011;3458;53.678;14.080;2023-10-09T02:03:21;3.37;;;1.77;;
6840;SDS011;3458;53.678;14.080;2023-10-09T02:05:49;2.80;;;1.70;;
6840;SDS011;3458;53.678;14.080;2023-10-09T02:08:16;4.17;;;2.40;;
6840;SDS011;3458;53.678;14.080;2023-10-09T02:10:46;3.37;;;1.63;;
6840;SDS011;3458;53.678;14.080;2023-10-09T02:13:13;4.87;;;1.87;;
6840;SDS011;3458;53.678;14.080;2023-10-09T02:15:47;5.27;;;2.27;;
6840;SDS011;3458;53.678;14.080;2023-10-09T02:18:16;5.53;;;2.17;;
6840;SDS011;3458;53.678;14.080;2023-10-09T02:20:49;3.13;;;2.10;;
6840;SDS011;3458;53.678;14.080;2023-10-09T02:23:37;4.73;;;2.47;;
6840;SDS011;3458;53.678;14.080;2023-10-09T02:26:09;6.40;;;1.97;;
6840;SDS011;3458;53.678;14.080;2023-10-09T02:28:44;1.87;;;1.73;;
6840;SDS011;3458;53.678;14.080;2023-10-09T02:31:17;3.80;;;1.80;;
6840;SDS011;3458;53.678;14.080;2023-10-09T02:33:46;2.27;;;1.80;;
6840;SDS011;3458;53.678;14.080;2023-10-09T02:36:13;5.03;;;1.60;;
6840;SDS011;3458;53.678;14.080;2023-10-09T02:38:38;2.77;;;1.90;;
6840;SDS011;3458;53.678;14.080;2023-10-09T02:41:07;2.70;;;1.57;;
6840;SDS011;3458;53.678;14.080;2023-10-09T02:43:38;3.80;;;2.23;;
6840;SDS011;3458;53.678;14.080;2023-10-09T02:46:16;2.93;;;1.67;;
6840;SDS011;3458;53.678;14.080;2023-10-09T02:48:46;6.40;;;1.90;;
6840;SDS011;3458;53.678;14.080;2023-10-09T02:51:22;3.07;;;1.87;;
6840;SDS011;3458;53.678;14.080;2023-10-09T02:53:51;2.37;;;2.17;;
6840;SDS011;3458;53.678;14.080;2023-10-09T02:56:17;5.87;;;2.60;;
6840;SDS011;3458;53.678;14.080;2023-10-09T02:58:49;3.60;;;2.30;;
6840;SDS011;3458;53.678;14.080;2023-10-09T03:01:17;4.70;;;2.00;;
6840;SDS011;3458;53.678;14.080;2023-10-09T03:03:43;4.87;;;2.17;;
6840;SDS011;3458;53.678;14.080;2023-10-09T03:06:11;2.20;;;1.33;;
6840;SDS011;3458;53.678;14.080;2023-10-09T03:08:50;2.20;;;1.90;;
6840;SDS011;3458;53.678;14.080;2023-10-09T03:11:15;2.67;;;1.80;;
6840;SDS011;3458;53.678;14.080;2023-10-09T03:13:44;3.40;;;1.93;;
6840;SDS011;3458;53.678;14.080;2023-10-09T03:16:10;2.43;;;1.70;;
6840;SDS011;3458;53.678;14.080;2023-10-09T03:18:41;2.10;;;1.70;;
6840;SDS011;3458;53.678;14.080;2023-10-09T03:21:06;2.70;;;1.80;;
6840;SDS011;3458;53.678;14.080;2023-10-09T03:23:33;2.70;;;1.93;;
6840;SDS011;3458;53.678;14.080;2023-10-09T03:25:59;2.83;;;1.73;;
6840;SDS011;3458;53.678;14.080;2023-10-09T03:28:24;2.20;;;1.70;;
6840;SDS011;3458;53.678;14.080;2023-10-09T03:30:50;3.70;;;1.73;;
6840;SDS011;3458;53.678;14.080;2023-10-09T03:33:16;6.30;;;2.10;;
6840;SDS011;3458;53.678;14.080;2023-10-09T03:35:42;3.20;;;1.73;;
6840;SDS011;3458;53.678;14.080;2023-10-09T03:38:08;8.63;;;5.23;;
6840;SDS011;3458;53.678;14.080;2023-10-09T03:40:43;5.17;;;2.20;;
6840;SDS011;3458;53.678;14.080;2023-10-09T03:43:12;8.70;;;2.90;;
6840;SDS011;3458;53.678;14.080;2023-10-09T03:45:39;4.73;;;1.90;;
6840;SDS011;3458;53.678;14.080;2023-10-09T03:48:17;2.10;;;1.73;;
6840;SDS011;3458;53.678;14.080;2023-10-09T03:50:48;2.40;;;1.70;;
6840;SDS011;3458;53.678;14.080;2023-10-09T03:53:13;3.83;;;2.00;;
6840;SDS011;3458;53.678;14.080;2023-10-09T03:55:39;3.43;;;1.90;;
6840;SDS011;3458;53.678;14.080;2023-10-09T03:58:06;6.43;;;4.23;;
6840;SDS011;3458;53.678;14.080;2023-10-09T04:00:32;5.43;;;1.80;;
6840;SDS011;3458;53.678;14.080;2023-10-09T04:03:09;6.43;;;2.10;;
6840;SDS011;3458;53.678;14.080;2023-10-09T04:05:36;4.70;;;1.80;;
6840;SDS011;3458;53.678;14.080;2023-10-09T04:08:02;5.20;;;2.20;;
6840;SDS011;3458;53.678;14.080;2023-10-09T04:10:37;1.70;;;1.60;;
6840;SDS011;3458;53.678;14.080;2023-10-09T04:13:12;13.23;;;2.00;;
6840;SDS011;3458;53.678;14.080;2023-10-09T04:15:42;3.70;;;1.70;;
6840;SDS011;3458;53.678;14.080;2023-10-09T04:18:07;2.60;;;1.87;;
6840;SDS011;3458;53.678;14.080;2023-10-09T04:20:40;4.53;;;2.43;;
6840;SDS011;3458;53.678;14.080;2023-10-09T04:23:40;3.00;;;1.57;;
6840;SDS011;3458;53.678;14.080;2023-10-09T04:26:35;3.47;;;1.70;;
6840;SDS011;3458;53.678;14.080;2023-10-09T04:29:02;5.07;;;2.50;;
6840;SDS011;3458;53.678;14.080;2023-10-09T04:31:28;5.07;;;2.17;;
6840;SDS011;3458;53.678;14.080;2023-10-09T04:34:00;4.90;;;1.83;;
6840;SDS011;3458;53.678;14.080;2023-10-09T04:36:44;3.50;;;2.20;;
6840;SDS011;3458;53.678;14.080;2023-10-09T04:39:11;3.13;;;1.97;;
6840;SDS011;3458;53.678;14.080;2023-10-09T04:41:37;4.80;;;2.70;;
6840;SDS011;3458;53.678;14.080;2023-10-09T04:44:10;2.40;;;1.70;;
6840;SDS011;3458;53.678;14.080;2023-10-09T04:46:54;5.27;;;1.67;;
6840;SDS011;3458;53.678;14.080;2023-10-09T04:49:36;4.57;;;2.10;;
6840;SDS011;3458;53.678;14.080;2023-10-09T04:52:17;2.57;;;2.10;;
6840;SDS011;3458;53.678;14.080;2023-10-09T04:54:56;5.40;;;2.70;;
6840;SDS011;3458;53.678;14.080;2023-10-09T04:57:34;5.07;;;2.57;;
6840;SDS011;3458;53.678;14.080;2023-10-09T05:00:11;5.20;;;2.00;;
6840;SDS011;3458;53.678;14.080;2023-10-09T05:02:50;4.80;;;2.13;;
6840;SDS011;3458;53.678;14.080;2023-10-09T05:05:22;3.17;;;2.10;;
6840;SDS011;3458;53.678;14.080;2023-10-09T05:08:00;2.93;;;1.70;;
6840;SDS011;3458;53.678;14.080;2023-10-09T05:10:43;4.83;;;2.40;;
6840;SDS011;3458;53.678;14.080;2023-10-09T05:13:35;2.50;;;1.90;;
6840;SDS011;3458;53.678;14.080;2023-10-09T05:16:08;2.43;;;1.67;;
6840;SDS011;3458;53.678;14.080;2023-10-09T05:18:47;3.33;;;2.20;;
6840;SDS011;3458;53.678;14.080;2023-10-09T05:21:32;2.80;;;1.97;;
6840;SDS011;3458;53.678;14.080;2023-10-09T05:24:09;2.77;;;1.90;;
6840;SDS011;3458;53.678;14.080;2023-10-09T05:26:48;4.83;;;2.83;;
6840;SDS011;3458;53.678;14.080;2023-10-09T05:29:15;8.17;;;2.77;;
6840;SDS011;3458;53.678;14.080;2023-10-09T05:34:29;4.90;;;2.40;;
6840;SDS011;3458;53.678;14.080;2023-10-09T05:37:14;4.40;;;2.63;;
6840;SDS011;3458;53.678;14.080;2023-10-09T05:39:45;5.53;;;2.40;;
6840;SDS011;3458;53.678;14.080;2023-10-09T05:42:30;4.03;;;2.03;;
6840;SDS011;3458;53.678;14.080;2023-10-09T05:45:06;3.90;;;2.20;;
6840;SDS011;3458;53.678;14.080;2023-10-09T05:47:42;4.50;;;2.10;;
6840;SDS011;3458;53.678;14.080;2023-10-09T05:50:29;4.40;;;2.57;;
6840;SDS011;3458;53.678;14.080;2023-10-09T05:52:58;2.83;;;2.50;;
6840;SDS011;3458;53.678;14.080;2023-10-09T05:55:26;3.27;;;2.20;;
6840;SDS011;3458;53.678;14.080;2023-10-09T05:58:12;3.43;;;2.27;;
6840;SDS011;3458;53.678;14.080;2023-10-09T06:00:56;7.53;;;2.70;;
6840;SDS011;3458;53.678;14.080;2023-10-09T06:03:51;2.87;;;2.20;;
6840;SDS011;3458;53.678;14.080;2023-10-09T06:06:19;8.30;;;2.90;;
6840;SDS011;3458;53.678;14.080;2023-10-09T06:09:03;6.10;;;3.40;;
6840;SDS011;3458;53.678;14.080;2023-10-09T06:11:40;5.20;;;2.27;;
6840;SDS011;3458;53.678;14.080;2023-10-09T06:14:11;2.43;;;2.10;;
6840;SDS011;3458;53.678;14.080;2023-10-09T06:16:38;3.17;;;2.17;;
6840;SDS011;3458;53.678;14.080;2023-10-09T06:19:11;4.43;;;2.90;;
6840;SDS011;3458;53.678;14.080;2023-10-09T06:21:51;6.17;;;2.43;;
6840;SDS011;3458;53.678;14.080;2023-10-09T06:24:20;8.23;;;2.67;;
6840;SDS011;3458;53.678;14.080;2023-10-09T06:26:48;6.63;;;2.23;;
6840;SDS011;3458;53.678;14.080;2023-10-09T06:29:24;5.77;;;2.60;;
6840;SDS011;3458;53.678;14.080;2023-10-09T06:32:16;6.50;;;2.57;;
6840;SDS011;3458;53.678;14.080;2023-10-09T06:34:43;3.30;;;2.80;;
6840;SDS011;3458;53.678;14.080;2023-10-09T06:37:11;5.57;;;3.17;;
6840;SDS011;3458;53.678;14.080;2023-10-09T06:39:57;6.40;;;2.43;;
6840;SDS011;3458;53.678;14.080;2023-10-09T06:42:23;2.53;;;1.90;;
6840;SDS011;3458;53.678;14.080;2023-10-09T06:45:11;10.47;;;5.70;;
6840;SDS011;3458;53.678;14.080;2023-10-09T06:47:51;4.30;;;2.50;;
6840;SDS011;3458;53.678;14.080;2023-10-09T06:50:55;4.57;;;2.50;;
6840;SDS011;3458;53.678;14.080;2023-10-09T06:53:45;2.73;;;2.43;;
6840;SDS011;3458;53.678;14.080;2023-10-09T06:56:20;5.30;;;2.67;;
6840;SDS011;3458;53.678;14.080;2023-10-09T07:01:41;4.23;;;2.43;;
6840;SDS011;3458;53.678;14.080;2023-10-09T07:04:11;5.60;;;2.50;;
6840;SDS011;3458;53.678;14.080;2023-10-09T07:06:47;4.13;;;2.40;;
6840;SDS011;3458;53.678;14.080;2023-10-09T07:09:14;3.13;;;1.97;;
6840;SDS011;3458;53.678;14.080;2023-10-09T07:11:40;4.27;;;2.53;;
6840;SDS011;3458;53.678;14.080;2023-10-09T07:19:41;3.53;;;2.57;;
6840;SDS011;3458;53.678;14.080;2023-10-09T07:22:07;3.70;;;2.20;;
6840;SDS011;3458;53.678;14.080;2023-10-09T07:24:46;2.60;;;2.40;;
6840;SDS011;3458;53.678;14.080;2023-10-09T07:27:21;7.00;;;2.90;;
6840;SDS011;3458;53.678;14.080;2023-10-09T07:30:07;3.17;;;2.20;;
6840;SDS011;3458;53.678;14.080;2023-10-09T07:32:59;6.27;;;2.60;;
6840;SDS011;3458;53.678;14.080;2023-10-09T07:35:44;3.10;;;2.00;;
6840;SDS011;3458;53.678;14.080;2023-10-09T07:40:44;3.70;;;2.50;;
6840;SDS011;3458;53.678;14.080;2023-10-09T07:43:29;7.37;;;4.00;;
6840;SDS011;3458;53.678;14.080;2023-10-09T07:46:09;5.40;;;2.87;;
6840;SDS011;3458;53.678;14.080;2023-10-09T07:48:58;2.50;;;2.20;;
6840;SDS011;3458;53.678;14.080;2023-10-09T07:51:34;3.63;;;2.60;;
6840;SDS011;3458;53.678;14.080;2023-10-09T07:54:01;13.93;;;6.70;;
6840;SDS011;3458;53.678;14.080;2023-10-09T07:56:33;3.27;;;1.97;;
6840;SDS011;3458;53.678;14.080;2023-10-09T07:59:10;3.67;;;2.20;;
6840;SDS011;3458;53.678;14.080;2023-10-09T08:01:37;5.03;;;2.57;;
6840;SDS011;3458;53.678;14.080;2023-10-09T08:04:27;13.13;;;3.00;;
6840;SDS011;3458;53.678;14.080;2023-10-09T08:07:03;4.57;;;2.50;;
6840;SDS011;3458;53.678;14.080;2023-10-09T08:09:33;7.50;;;2.90;;
6840;SDS011;3458;53.678;14.080;2023-10-09T08:12:11;3.43;;;2.40;;
6840;SDS011;3458;53.678;14.080;2023-10-09T08:15:04;3.17;;;2.13;;
6840;SDS011;3458;53.678;14.080;2023-10-09T08:20:22;2.70;;;1.93;;
6840;SDS011;3458;53.678;14.080;2023-10-09T08:22:51;3.07;;;2.77;;
6840;SDS011;3458;53.678;14.080;2023-10-09T08:25:20;4.70;;;2.33;;
6840;SDS011;3458;53.678;14.080;2023-10-09T08:28:01;3.40;;;1.97;;
6840;SDS011;3458;53.678;14.080;2023-10-09T08:30:40;3.30;;;2.43;;
6840;SDS011;3458;53.678;14.080;2023-10-09T08:33:14;2.43;;;2.00;;
6840;SDS011;3458;53.678;14.080;2023-10-09T08:35:52;6.13;;;3.13;;
6840;SDS011;3458;53.678;14.080;2023-10-09T08:38:27;5.00;;;2.47;;
6840;SDS011;3458;53.678;14.080;2023-10-09T08:40:58;2.83;;;2.60;;
6840;SDS011;3458;53.678;14.080;2023-10-09T08:43:43;3.67;;;2.53;;
6840;SDS011;3458;53.678;14.080;2023-10-09T08:46:17;2.10;;;1.90;;
6840;SDS011;3458;53.678;14.080;2023-10-09T08:48:48;5.20;;;2.80;;
6840;SDS011;3458;53.678;14.080;2023-10-09T08:51:14;3.67;;;2.33;;
6840;SDS011;3458;53.678;14.080;2023-10-09T08:53:41;2.93;;;1.90;;
6840;SDS011;3458;53.678;14.080;2023-10-09T08:56:11;6.43;;;3.00;;
6840;SDS011;3458;53.678;14.080;2023-10-09T08:58:39;5.17;;;2.80;;
6840;SDS011;3458;53.678;14.080;2023-10-09T09:01:05;4.20;;;3.23;;
6840;SDS011;3458;53.678;14.080;2023-10-09T09:03:38;10.40;;;3.23;;
6840;SDS011;3458;53.678;14.080;2023-10-09T09:06:08;4.00;;;3.10;;
6840;SDS011;3458;53.678;14.080;2023-10-09T09:08:35;9.30;;;2.93;;
6840;SDS011;3458;53.678;14.080;2023-10-09T09:11:11;3.30;;;2.70;;
6840;SDS011;3458;53.678;14.080;2023-10-09T09:13:48;6.10;;;2.40;;
6840;SDS011;3458;53.678;14.080;2023-10-09T09:16:40;4.63;;;3.40;;
6840;SDS011;3458;53.678;14.080;2023-10-09T09:19:09;3.93;;;3.47;;
6840;SDS011;3458;53.678;14.080;2023-10-09T09:21:36;3.30;;;2.80;;
6840;SDS011;3458;53.678;14.080;2023-10-09T09:24:12;5.93;;;4.00;;
6840;SDS011;3458;53.678;14.080;2023-10-09T09:26:47;8.40;;;3.97;;
6840;SDS011;3458;53.678;14.080;2023-10-09T09:29:24;4.90;;;4.13;;
6840;SDS011;3458;53.678;14.080;2023-10-09T09:32:03;11.70;;;5.10;;
6840;SDS011;3458;53.678;14.080;2023-10-09T09:34:51;5.23;;;3.57;;
6840;SDS011;3458;53.678;14.080;2023-10-09T09:37:20;8.00;;;3.50;;
6840;SDS011;3458;53.678;14.080;2023-10-09T09:39:53;6.47;;;4.13;;
6840;SDS011;3458;53.678;14.080;2023-10-09T09:42:20;6.20;;;3.93;;
6840;SDS011;3458;53.678;14.080;2023-10-09T09:44:50;9.87;;;4.70;;
6840;SDS011;3458;53.678;14.080;2023-10-09T09:47:17;6.70;;;4.13;;
6840;SDS011;3458;53.678;14.080;2023-10-09T09:49:50;9.43;;;3.20;;
6840;SDS011;3458;53.678;14.080;2023-10-09T09:52:24;8.13;;;3.90;;
6840;SDS011;3458;53.678;14.080;2023-10-09T09:54:51;5.93;;;3.90;;
6840;SDS011;3458;53.678;14.080;2023-10-09T09:57:16;3.00;;;2.30;;
6840;SDS011;3458;53.678;14.080;2023-10-09T09:59:51;4.23;;;2.10;;
6840;SDS011;3458;53.678;14.080;2023-10-09T10:02:22;4.60;;;2.57;;
6840;SDS011;3458;53.678;14.080;2023-10-09T10:04:55;6.60;;;3.00;;
6840;SDS011;3458;53.678;14.080;2023-10-09T10:07:24;3.30;;;2.80;;
6840;SDS011;3458;53.678;14.080;2023-10-09T10:09:53;3.43;;;2.50;;
6840;SDS011;3458;53.678;14.080;2023-10-09T10:15:11;5.80;;;2.50;;
6840;SDS011;3458;53.678;14.080;2023-10-09T10:20:28;3.30;;;2.50;;
6840;SDS011;3458;53.678;14.080;2023-10-09T10:23:14;5.93;;;2.20;;
6840;SDS011;3458;53.678;14.080;2023-10-09T10:25:45;3.20;;;1.97;;
6840;SDS011;3458;53.678;14.080;2023-10-09T10:28:24;6.27;;;2.40;;
6840;SDS011;3458;53.678;14.080;2023-10-09T10:31:09;8.70;;;2.40;;
6840;SDS011;3458;53.678;14.080;2023-10-09T10:36:20;5.60;;;2.87;;
6840;SDS011;3458;53.678;14.080;2023-10-09T10:39:07;4.80;;;3.20;;
6840;SDS011;3458;53.678;14.080;2023-10-09T10:41:36;3.63;;;2.33;;
6840;SDS011;3458;53.678;14.080;2023-10-09T10:44:28;6.17;;;2.80;;
6840;SDS011;3458;53.678;14.080;2023-10-09T10:47:07;4.90;;;2.43;;
6840;SDS011;3458;53.678;14.080;2023-10-09T10:49:49;5.67;;;3.00;;
6840;SDS011;3458;53.678;14.080;2023-10-09T10:52:23;6.43;;;3.20;;
6840;SDS011;3458;53.678;14.080;2023-10-09T10:57:56;5.40;;;3.57;;
6840;SDS011;3458;53.678;14.080;2023-10-09T11:00:26;4.67;;;2.87;;
6840;SDS011;3458;53.678;14.080;2023-10-09T11:03:16;6.67;;;2.30;;
6840;SDS011;3458;53.678;14.080;2023-10-09T11:05:48;4.83;;;2.93;;
6840;SDS011;3458;53.678;14.080;2023-10-09T11:08:17;3.60;;;2.80;;
6840;SDS011;3458;53.678;14.080;2023-10-09T11:10:48;4.90;;;3.03;;
6840;SDS011;3458;53.678;14.080;2023-10-09T11:13:22;5.70;;;2.73;;
6840;SDS011;3458;53.678;14.080;2023-10-09T11:15:55;2.50;;;2.23;;
6840;SDS011;3458;53.678;14.080;2023-10-09T11:18:39;4.83;;;2.73;;
6840;SDS011;3458;53.678;14.080;2023-10-09T11:21:12;8.37;;;3.10;;
6840;SDS011;3458;53.678;14.080;2023-10-09T11:23:39;4.87;;;2.70;;
6840;SDS011;3458;53.678;14.080;2023-10-09T11:26:23;4.97;;;2.50;;
6840;SDS011;3458;53.678;14.080;2023-10-09T11:29:06;6.03;;;2.40;;
6840;SDS011;3458;53.678;14.080;2023-10-09T11:34:28;3.73;;;2.63;;
6840;SDS011;3458;53.678;14.080;2023-10-09T11:36:58;15.43;;;2.67;;
6840;SDS011;3458;53.678;14.080;2023-10-09T11:39:26;4.70;;;3.07;;
6840;SDS011;3458;53.678;14.080;2023-10-09T11:42:15;3.90;;;2.50;;
6840;SDS011;3458;53.678;14.080;2023-10-09T11:45:00;3.30;;;2.33;;
6840;SDS011;3458;53.678;14.080;2023-10-09T11:47:38;3.23;;;2.63;;
6840;SDS011;3458;53.678;14.080;2023-10-09T11:50:19;6.53;;;2.67;;
6840;SDS011;3458;53.678;14.080;2023-10-09T11:52:58;3.20;;;2.17;;
6840;SDS011;3458;53.678;14.080;2023-10-09T11:55:43;2.63;;;2.30;;
6840;SDS011;3458;53.678;14.080;2023-10-09T11:58:13;9.20;;;2.90;;
6840;SDS011;3458;53.678;14.080;2023-10-09T12:00:39;3.57;;;2.50;;
6840;SDS011;3458;53.678;14.080;2023-10-09T12:03:11;5.80;;;2.80;;
6840;SDS011;3458;53.678;14.080;2023-10-09T12:05:38;7.80;;;3.00;;
6840;SDS011;3458;53.678;14.080;2023-10-09T12:08:07;4.10;;;2.53;;
6840;SDS011;3458;53.678;14.080;2023-10-09T12:10:34;4.70;;;2.63;;
6840;SDS011;3458;53.678;14.080;2023-10-09T12:13:03;3.33;;;2.17;;
6840;SDS011;3458;53.678;14.080;2023-10-09T12:15:29;3.63;;;3.03;;
6840;SDS011;3458;53.678;14.080;2023-10-09T12:18:03;5.10;;;3.20;;
6840;SDS011;3458;53.678;14.080;2023-10-09T12:20:31;8.17;;;2.37;;
6840;SDS011;3458;53.678;14.080;2023-10-09T12:22:59;15.17;;;3.97;;
6840;SDS011;3458;53.678;14.080;2023-10-09T12:25:25;4.50;;;2.70;;
6840;SDS011;3458;53.678;14.080;2023-10-09T12:27:51;6.63;;;2.33;;
6840;SDS011;3458;53.678;14.080;2023-10-09T12:30:20;6.13;;;3.97;;
6840;SDS011;3458;53.678;14.080;2023-10-09T12:32:51;12.73;;;6.87;;
6840;SDS011;3458;53.678;14.080;2023-10-09T12:35:22;11.37;;;2.93;;
6840;SDS011;3458;53.678;14.080;2023-10-09T12:37:49;4.53;;;2.40;;
6840;SDS011;3458;53.678;14.080;2023-10-09T12:40:19;7.70;;;2.83;;
6840;SDS011;3458;53.678;14.080;2023-10-09T12:42:52;9.10;;;3.00;;
6840;SDS011;3458;53.678;14.080;2023-10-09T12:45:18;5.33;;;2.80;;
6840;SDS011;3458;53.678;14.080;2023-10-09T12:47:51;5.33;;;2.70;;
6840;SDS011;3458;53.678;14.080;2023-10-09T12:50:24;5.23;;;2.50;;
6840;SDS011;3458;53.678;14.080;2023-10-09T12:52:55;4.33;;;2.50;;
6840;SDS011;3458;53.678;14.080;2023-10-09T12:55:26;2.83;;;1.90;;
6840;SDS011;3458;53.678;14.080;2023-10-09T12:57:57;4.63;;;2.90;;
6840;SDS011;3458;53.678;14.080;2023-10-09T13:00:32;7.83;;;2.80;;
6840;SDS011;3458;53.678;14.080;2023-10-09T13:03:02;6.10;;;2.80;;
6840;SDS011;3458;53.678;14.080;2023-10-09T13:05:38;10.90;;;5.50;;
6840;SDS011;3458;53.678;14.080;2023-10-09T13:08:16;7.00;;;3.57;;
6840;SDS011;3458;53.678;14.080;2023-10-09T13:10:45;5.17;;;2.90;;
6840;SDS011;3458;53.678;14.080;2023-10-09T13:13:10;1.87;;;1.73;;
6840;SDS011;3458;53.678;14.080;2023-10-09T13:15:36;3.00;;;2.10;;
6840;SDS011;3458;53.678;14.080;2023-10-09T13:18:07;6.20;;;2.50;;
6840;SDS011;3458;53.678;14.080;2023-10-09T13:20:33;6.80;;;2.70;;
6840;SDS011;3458;53.678;14.080;2023-10-09T13:23:00;7.37;;;2.60;;
6840;SDS011;3458;53.678;14.080;2023-10-09T13:25:26;6.50;;;2.43;;
6840;SDS011;3458;53.678;14.080;2023-10-09T13:28:03;5.70;;;3.00;;
6840;SDS011;3458;53.678;14.080;2023-10-09T13:30:28;7.60;;;2.67;;
6840;SDS011;3458;53.678;14.080;2023-10-09T13:32:54;7.07;;;3.20;;
6840;SDS011;3458;53.678;14.080;2023-10-09T13:35:20;5.50;;;2.47;;
6840;SDS011;3458;53.678;14.080;2023-10-09T13:37:52;5.70;;;2.47;;
6840;SDS011;3458;53.678;14.080;2023-10-09T13:40:21;4.00;;;2.63;;
6840;SDS011;3458;53.678;14.080;2023-10-09T13:42:55;3.90;;;2.43;;
6840;SDS011;3458;53.678;14.080;2023-10-09T13:45:24;3.87;;;2.90;;
6840;SDS011;3458;53.678;14.080;2023-10-09T13:47:52;6.27;;;3.10;;
6840;SDS011;3458;53.678;14.080;2023-10-09T13:50:19;8.83;;;3.20;;
6840;SDS011;3458;53.678;14.080;2023-10-09T13:52:47;6.70;;;2.90;;
6840;SDS011;3458;53.678;14.080;2023-10-09T13:55:13;11.33;;;3.60;;
6840;SDS011;3458;53.678;14.080;2023-10-09T13:57:42;6.03;;;2.80;;
6840;SDS011;3458;53.678;14.080;2023-10-09T14:00:19;12.57;;;3.93;;
6840;SDS011;3458;53.678;14.080;2023-10-09T14:02:58;6.83;;;3.50;;
6840;SDS011;3458;53.678;14.080;2023-10-09T14:05:27;8.07;;;3.23;;
6840;SDS011;3458;53.678;14.080;2023-10-09T14:07:53;12.30;;;3.63;;
6840;SDS011;3458;53.678;14.080;2023-10-09T14:10:22;14.83;;;7.50;;
6840;SDS011;3458;53.678;14.080;2023-10-09T14:12:51;13.30;;;8.53;;
6840;SDS011;3458;53.678;14.080;2023-10-09T14:15:19;12.63;;;6.23;;
6840;SDS011;3458;53.678;14.080;2023-10-09T14:17:44;7.40;;;5.33;;
6840;SDS011;3458;53.678;14.080;2023-10-09T14:20:11;7.57;;;6.00;;
6840;SDS011;3458;53.678;14.080;2023-10-09T14:22:56;9.40;;;6.27;;
6840;SDS011;3458;53.678;14.080;2023-10-09T14:25:34;12.80;;;6.20;;
6840;SDS011;3458;53.678;14.080;2023-10-09T14:28:09;10.93;;;4.73;;
6840;SDS011;3458;53.678;14.080;2023-10-09T14:30:35;8.23;;;5.60;;
6840;SDS011;3458;53.678;14.080;2023-10-09T14:33:12;11.23;;;7.00;;
6840;SDS011;3458;53.678;14.080;2023-10-09T14:35:39;11.43;;;6.20;;
6840;SDS011;3458;53.678;14.080;2023-10-09T14:38:07;7.63;;;5.53;;
6840;SDS011;3458;53.678;14.080;2023-10-09T14:40:44;8.63;;;5.10;;
6840;SDS011;3458;53.678;14.080;2023-10-09T14:43:10;15.23;;;6.30;;
6840;SDS011;3458;53.678;14.080;2023-10-09T14:45:47;6.57;;;3.93;;
6840;SDS011;3458;53.678;14.080;2023-10-09T14:48:18;13.10;;;6.70;;
6840;SDS011;3458;53.678;14.080;2023-10-09T14:50:47;11.40;;;6.17;;
6840;SDS011;3458;53.678;14.080;2023-10-09T14:53:14;8.37;;;4.30;;
6840;SDS011;3458;53.678;14.080;2023-10-09T14:55:40;5.70;;;4.20;;
6840;SDS011;3458;53.678;14.080;2023-10-09T14:58:10;11.80;;;4.87;;
6840;SDS011;3458;53.678;14.080;2023-10-09T15:00:36;9.33;;;4.37;;
6840;SDS011;3458;53.678;14.080;2023-10-09T15:03:01;6.27;;;4.33;;
6840;SDS011;3458;53.678;14.080;2023-10-09T15:05:28;9.27;;;5.10;;
6840;SDS011;3458;53.678;14.080;2023-10-09T15:07:56;8.47;;;4.63;;
6840;SDS011;3458;53.678;14.080;2023-10-09T15:10:22;14.93;;;5.20;;
6840;SDS011;3458;53.678;14.080;2023-10-09T15:12:49;9.70;;;4.27;;
6840;SDS011;3458;53.678;14.080;2023-10-09T15:15:14;7.10;;;4.77;;
6840;SDS011;3458;53.678;14.080;2023-10-09T15:17:40;6.50;;;4.30;;
6840;SDS011;3458;53.678;14.080;2023-10-09T15:20:12;10.77;;;5.40;;
6840;SDS011;3458;53.678;14.080;2023-10-09T15:22:40;9.83;;;4.90;;
6840;SDS011;3458;53.678;14.080;2023-10-09T15:25:08;10.30;;;5.70;;
6840;SDS011;3458;53.678;14.080;2023-10-09T15:27:39;6.43;;;4.03;;
6840;SDS011;3458;53.678;14.080;2023-10-09T15:30:15;10.97;;;6.37;;
6840;SDS011;3458;53.678;14.080;2023-10-09T15:32:42;18.60;;;10.13;;
6840;SDS011;3458;53.678;14.080;2023-10-09T15:35:08;13.60;;;6.50;;
6840;SDS011;3458;53.678;14.080;2023-10-09T15:37:37;13.13;;;5.33;;
6840;SDS011;3458;53.678;14.080;2023-10-09T15:40:06;5.70;;;4.17;;
6840;SDS011;3458;53.678;14.080;2023-10-09T15:42:32;9.70;;;5.30;;
6840;SDS011;3458;53.678;14.080;2023-10-09T15:44:57;12.13;;;4.93;;
6840;SDS011;3458;53.678;14.080;2023-10-09T15:47:25;10.37;;;6.30;;
6840;SDS011;3458;53.678;14.080;2023-10-09T15:49:50;12.27;;;4.73;;
6840;SDS011;3458;53.678;14.080;2023-10-09T15:52:17;8.20;;;5.60;;
6840;SDS011;3458;53.678;14.080;2023-10-09T15:54:43;9.07;;;5.47;;
6840;SDS011;3458;53.678;14.080;2023-10-09T15:57:09;5.70;;;4.03;;
6840;SDS011;3458;53.678;14.080;2023-10-09T15:59:38;5.30;;;4.60;;
6840;SDS011;3458;53.678;14.080;2023-10-09T16:02:04;8.80;;;5.10;;
6840;SDS011;3458;53.678;14.080;2023-10-09T16:04:30;9.37;;;5.10;;
6840;SDS011;3458;53.678;14.080;2023-10-09T16:06:59;6.40;;;5.37;;